M I D A S
Marine Information and Data Acquisition System
Tripno 1721 of the Zeeleeuw from 2009-01-16 07:30:54 to 2009-01-16 12:52:50
Back to CruiseResearch ActivitiesStationsMapUnderway DataData graphs

EquipmentUnitsComments
TimeDGPSUTC
LatitudeDGPSDM.mWGS84
LongitudeDGPSDM.mWGS84
SpeedMeteo Stationm/sRelative wind speed
DirectionMeteo StationdegRelative wind direction
TemperatureMeteo Stationdeg CelciusAir temperature
PressureMeteo StationPaAtmospheric pressure
HumidityMeteo Station%Relative humidity
Missing or incorrect values are displayed as -999
Metereological data collected by the RV Zeeleeuw from 2009-01-16 07:31:05 to 2009-01-16 13:02:10
Time Latitude Longitude Speed Direction Temperature Pressure Humidity
2009-01-16 07:32 51°13.675 2°55.924 -999 -999 -999 -999 -999
2009-01-16 07:33 51°13.688 2°55.854 -999 -999 -999 -999 -999
2009-01-16 07:34 51°13.689 2°55.784 -999 -999 -999 -999 -999
2009-01-16 07:35 51°13.717 2°55.784 -999 -999 -999 -999 -999
2009-01-16 07:36 51°13.765 2°55.725 -999 -999 -999 -999 -999
2009-01-16 07:37 51°13.836 2°55.629 -999 -999 -999 -999 -999
2009-01-16 07:38 51°13.929 2°55.554 -999 -999 -999 -999 -999
2009-01-16 07:39 51°14.03 2°55.476 -999 -999 -999 -999 -999
2009-01-16 07:40 51°14.134 2°55.397 -999 -999 -999 -999 -999
2009-01-16 07:41 51°14.234 2°55.298 -999 -999 -999 -999 -999
2009-01-16 07:42 51°14.323 2°55.152 -999 -999 -999 -999 -999
2009-01-16 07:43 51°14.423 2°54.969 -999 -999 -999 -999 -999
2009-01-16 07:44 51°14.564 2°54.825 -999 -999 -999 -999 -999
2009-01-16 07:45 51°14.73 2°54.671 -999 -999 -999 -999 -999
2009-01-16 07:46 51°14.904 2°54.494 -999 -999 -999 -999 -999
2009-01-16 07:47 51°15.081 2°54.315 -999 -999 -999 -999 -999
2009-01-16 07:48 51°15.261 2°54.142 -999 -999 -999 -999 -999
2009-01-16 07:49 51°15.441 2°53.982 -999 -999 -999 -999 -999
2009-01-16 07:50 51°15.616 2°53.811 -999 -999 -999 -999 -999
2009-01-16 07:51 51°15.793 2°53.645 -999 -999 -999 -999 -999
2009-01-16 07:52 51°15.972 2°53.48 -999 -999 -999 -999 -999
2009-01-16 07:53 51°16.151 2°53.315 -999 -999 -999 -999 -999
2009-01-16 07:54 51°16.332 2°53.15 -999 -999 -999 -999 -999
2009-01-16 07:55 51°16.519 2°53.003 -999 -999 -999 -999 -999
2009-01-16 07:56 51°16.709 2°52.867 -999 -999 -999 -999 -999
2009-01-16 07:57 51°16.895 2°52.725 -999 -999 -999 -999 -999
2009-01-16 07:58 51°17.085 2°52.597 -999 -999 -999 -999 -999
2009-01-16 07:59 51°17.286 2°52.53 -999 -999 -999 -999 -999
2009-01-16 08:00 51°17.491 2°52.481 -999 -999 -999 -999 -999
2009-01-16 08:01 51°17.696 2°52.452 -999 -999 -999 -999 -999
2009-01-16 08:02 51°17.901 2°52.438 -999 -999 -999 -999 -999
2009-01-16 08:03 51°18.106 2°52.431 -999 -999 -999 -999 -999
2009-01-16 08:04 51°18.304 2°52.503 -999 -999 -999 -999 -999
2009-01-16 08:05 51°18.502 2°52.58 -999 -999 -999 -999 -999
2009-01-16 08:06 51°18.699 2°52.653 -999 -999 -999 -999 -999
2009-01-16 08:07 51°18.805 2°52.733 -999 -999 -999 -999 -999
2009-01-16 08:08 51°18.843 2°52.796 -999 -999 -999 -999 -999
2009-01-16 08:09 51°18.867 2°52.877 -999 -999 -999 -999 -999
2009-01-16 08:10 51°18.876 2°52.977 -999 -999 -999 -999 -999
2009-01-16 08:11 51°18.867 2°53.063 -999 -999 -999 -999 -999
2009-01-16 08:12 51°18.868 2°53.149 -999 -999 -999 -999 -999
2009-01-16 08:13 51°18.879 2°53.235 -999 -999 -999 -999 -999
2009-01-16 08:14 51°18.908 2°53.312 -999 -999 -999 -999 -999
2009-01-16 08:15 51°18.941 2°53.38 -999 -999 -999 -999 -999
2009-01-16 08:16 51°18.971 2°53.444 -999 -999 -999 -999 -999
2009-01-16 08:17 51°19.002 2°53.506 -999 -999 -999 -999 -999
2009-01-16 08:18 51°19.034 2°53.566 -999 -999 -999 -999 -999
2009-01-16 08:19 51°19.067 2°53.626 -999 -999 -999 -999 -999
2009-01-16 08:20 51°19.098 2°53.687 -999 -999 -999 -999 -999
2009-01-16 08:21 51°19.132 2°53.746 -999 -999 -999 -999 -999
2009-01-16 08:22 51°19.165 2°53.805 -999 -999 -999 -999 -999
2009-01-16 08:23 51°19.196 2°53.864 -999 -999 -999 -999 -999
2009-01-16 08:24 51°19.229 2°53.921 -999 -999 -999 -999 -999
2009-01-16 08:25 51°19.26 2°53.978 -999 -999 -999 -999 -999
2009-01-16 08:26 51°19.292 2°54.033 -999 -999 -999 -999 -999
2009-01-16 08:27 51°19.322 2°54.087 -999 -999 -999 -999 -999
2009-01-16 08:28 51°19.352 2°54.14 -999 -999 -999 -999 -999
2009-01-16 08:29 51°19.383 2°54.193 -999 -999 -999 -999 -999
2009-01-16 08:30 51°19.414 2°54.245 -999 -999 -999 -999 -999
2009-01-16 08:31 51°19.443 2°54.297 -999 -999 -999 -999 -999
2009-01-16 08:32 51°19.474 2°54.348 -999 -999 -999 -999 -999
2009-01-16 08:33 51°19.506 2°54.403 -999 -999 -999 -999 -999
2009-01-16 08:34 51°19.538 2°54.46 -999 -999 -999 -999 -999
2009-01-16 08:35 51°19.57 2°54.519 -999 -999 -999 -999 -999
2009-01-16 08:36 51°19.604 2°54.577 -999 -999 -999 -999 -999
2009-01-16 08:37 51°19.636 2°54.634 -999 -999 -999 -999 -999
2009-01-16 08:38 51°19.667 2°54.692 -999 -999 -999 -999 -999
2009-01-16 08:39 51°19.698 2°54.75 -999 -999 -999 -999 -999
2009-01-16 08:40 51°19.73 2°54.805 -999 -999 -999 -999 -999
2009-01-16 08:41 51°19.76 2°54.861 -999 -999 -999 -999 -999
2009-01-16 08:42 51°19.791 2°54.917 -999 -999 -999 -999 -999
2009-01-16 08:43 51°19.822 2°54.973 -999 -999 -999 -999 -999
2009-01-16 08:44 51°19.853 2°55.029 -999 -999 -999 -999 -999
2009-01-16 08:45 51°19.883 2°55.086 -999 -999 -999 -999 -999
2009-01-16 08:46 51°19.914 2°55.142 -999 -999 -999 -999 -999
2009-01-16 08:47 51°19.944 2°55.198 -999 -999 -999 -999 -999
2009-01-16 08:48 51°19.975 2°55.254 -999 -999 -999 -999 -999
2009-01-16 08:49 51°20.005 2°55.31 -999 -999 -999 -999 -999
2009-01-16 08:50 51°20.034 2°55.366 -999 -999 -999 -999 -999
2009-01-16 08:51 51°20.057 2°55.423 -999 -999 -999 -999 -999
2009-01-16 08:52 51°20.068 2°55.481 -999 -999 -999 -999 -999
2009-01-16 08:53 51°20.057 2°55.533 -999 -999 -999 -999 -999
2009-01-16 08:54 51°20.044 2°55.549 -999 -999 -999 -999 -999
2009-01-16 08:55 51°20.042 2°55.552 -999 -999 -999 -999 -999
2009-01-16 08:56 51°20.045 2°55.548 -999 -999 -999 -999 -999
2009-01-16 08:57 51°20.048 2°55.546 -999 -999 -999 -999 -999
2009-01-16 08:58 51°20.008 2°55.561 -999 -999 -999 -999 -999
2009-01-16 08:59 51°19.926 2°55.471 -999 -999 -999 -999 -999
2009-01-16 09:00 51°19.783 2°55.302 -999 -999 -999 -999 -999
2009-01-16 09:01 51°19.634 2°55.071 -999 -999 -999 -999 -999
2009-01-16 09:02 51°19.487 2°54.83 -999 -999 -999 -999 -999
2009-01-16 09:03 51°19.353 2°54.569 -999 -999 -999 -999 -999
2009-01-16 09:04 51°19.224 2°54.304 -999 -999 -999 -999 -999
2009-01-16 09:05 51°19.092 2°54.044 -999 -999 -999 -999 -999
2009-01-16 09:06 51°18.962 2°53.781 -999 -999 -999 -999 -999
2009-01-16 09:07 51°18.83 2°53.524 -999 -999 -999 -999 -999
2009-01-16 09:08 51°18.698 2°53.265 -999 -999 -999 -999 -999
2009-01-16 09:09 51°18.565 2°53.007 -999 -999 -999 -999 -999
2009-01-16 09:10 51°18.431 2°52.749 -999 -999 -999 -999 -999
2009-01-16 09:11 51°18.3 2°52.491 -999 -999 -999 -999 -999
2009-01-16 09:12 51°18.171 2°52.23 -999 -999 -999 -999 -999
2009-01-16 09:13 51°18.042 2°51.969 -999 -999 -999 -999 -999
2009-01-16 09:14 51°17.915 2°51.707 -999 -999 -999 -999 -999
2009-01-16 09:15 51°17.794 2°51.437 -999 -999 -999 -999 -999
2009-01-16 09:16 51°17.672 2°51.166 -999 -999 -999 -999 -999
2009-01-16 09:17 51°17.548 2°50.897 -999 -999 -999 -999 -999
2009-01-16 09:18 51°17.424 2°50.631 -999 -999 -999 -999 -999
2009-01-16 09:19 51°17.298 2°50.366 -999 -999 -999 -999 -999
2009-01-16 09:20 51°17.17 2°50.103 -999 -999 -999 -999 -999
2009-01-16 09:21 51°17.042 2°49.841 -999 -999 -999 -999 -999
2009-01-16 09:22 51°16.888 2°49.625 -999 -999 -999 -999 -999
2009-01-16 09:23 51°16.723 2°49.425 -999 -999 -999 -999 -999
2009-01-16 09:24 51°16.558 2°49.218 -999 -999 -999 -999 -999
2009-01-16 09:25 51°16.398 2°49.015 -999 -999 -999 -999 -999
2009-01-16 09:26 51°16.318 2°48.934 -999 -999 -999 -999 -999
2009-01-16 09:27 51°16.284 2°48.891 -999 -999 -999 -999 -999
2009-01-16 09:28 51°16.248 2°48.849 -999 -999 -999 -999 -999
2009-01-16 09:29 51°16.182 2°48.799 -999 -999 -999 -999 -999
2009-01-16 09:30 51°16.126 2°48.736 -999 -999 -999 -999 -999
2009-01-16 09:31 51°16.086 2°48.659 -999 -999 -999 -999 -999
2009-01-16 09:32 51°16.054 2°48.579 -999 -999 -999 -999 -999
2009-01-16 09:33 51°16.034 2°48.495 -999 -999 -999 -999 -999
2009-01-16 09:34 51°16.017 2°48.42 -999 -999 -999 -999 -999
2009-01-16 09:35 51°16.002 2°48.35 -999 -999 -999 -999 -999
2009-01-16 09:36 51°15.99 2°48.282 -999 -999 -999 -999 -999
2009-01-16 09:37 51°15.973 2°48.209 -999 -999 -999 -999 -999
2009-01-16 09:38 51°15.951 2°48.131 -999 -999 -999 -999 -999
2009-01-16 09:39 51°15.929 2°48.052 -999 -999 -999 -999 -999
2009-01-16 09:40 51°15.91 2°47.975 -999 -999 -999 -999 -999
2009-01-16 09:41 51°15.894 2°47.9 -999 -999 -999 -999 -999
2009-01-16 09:42 51°15.878 2°47.826 -999 -999 -999 -999 -999
2009-01-16 09:43 51°15.86 2°47.751 -999 -999 -999 -999 -999
2009-01-16 09:44 51°15.843 2°47.675 -999 -999 -999 -999 -999
2009-01-16 09:45 51°15.826 2°47.597 -999 -999 -999 -999 -999
2009-01-16 09:46 51°15.809 2°47.52 -999 -999 -999 -999 -999
2009-01-16 09:47 51°15.792 2°47.444 -999 -999 -999 -999 -999
2009-01-16 09:48 51°15.777 2°47.366 -999 -999 -999 -999 -999
2009-01-16 09:49 51°15.762 2°47.291 -999 -999 -999 -999 -999
2009-01-16 09:50 51°15.746 2°47.217 -999 -999 -999 -999 -999
2009-01-16 09:51 51°15.729 2°47.141 -999 -999 -999 -999 -999
2009-01-16 09:52 51°15.714 2°47.065 -999 -999 -999 -999 -999
2009-01-16 09:53 51°15.7 2°46.99 -999 -999 -999 -999 -999
2009-01-16 09:54 51°15.684 2°46.915 -999 -999 -999 -999 -999
2009-01-16 09:55 51°15.669 2°46.839 -999 -999 -999 -999 -999
2009-01-16 09:56 51°15.655 2°46.764 -999 -999 -999 -999 -999
2009-01-16 09:57 51°15.64 2°46.689 -999 -999 -999 -999 -999
2009-01-16 09:58 51°15.625 2°46.613 -999 -999 -999 -999 -999
2009-01-16 09:59 51°15.612 2°46.539 -999 -999 -999 -999 -999
2009-01-16 10:00 51°15.599 2°46.465 -999 -999 -999 -999 -999
2009-01-16 10:01 51°15.585 2°46.391 -999 -999 -999 -999 -999
2009-01-16 10:02 51°15.573 2°46.317 -999 -999 -999 -999 -999
2009-01-16 10:03 51°15.563 2°46.242 -999 -999 -999 -999 -999
2009-01-16 10:04 51°15.553 2°46.166 -999 -999 -999 -999 -999
2009-01-16 10:05 51°15.54 2°46.09 -999 -999 -999 -999 -999
2009-01-16 10:06 51°15.526 2°46.014 -999 -999 -999 -999 -999
2009-01-16 10:07 51°15.511 2°45.94 -999 -999 -999 -999 -999
2009-01-16 10:08 51°15.496 2°45.866 -999 -999 -999 -999 -999
2009-01-16 10:09 51°15.481 2°45.793 -999 -999 -999 -999 -999
2009-01-16 10:10 51°15.467 2°45.719 -999 -999 -999 -999 -999
2009-01-16 10:11 51°15.455 2°45.645 -999 -999 -999 -999 -999
2009-01-16 10:12 51°15.442 2°45.569 -999 -999 -999 -999 -999
2009-01-16 10:13 51°15.428 2°45.494 -999 -999 -999 -999 -999
2009-01-16 10:14 51°15.413 2°45.418 -999 -999 -999 -999 -999
2009-01-16 10:15 51°15.401 2°45.337 -999 -999 -999 -999 -999
2009-01-16 10:16 51°15.396 2°45.251 -999 -999 -999 -999 -999
2009-01-16 10:17 51°15.408 2°45.167 -999 -999 -999 -999 -999
2009-01-16 10:18 51°15.433 2°45.091 -999 -999 -999 -999 -999
2009-01-16 10:19 51°15.483 2°45.042 -999 -999 -999 -999 -999
2009-01-16 10:20 51°15.515 2°45.049 -999 -999 -999 -999 -999
2009-01-16 10:21 51°15.524 2°45.109 -999 -999 -999 -999 -999
2009-01-16 10:22 51°15.506 2°45.156 -999 -999 -999 -999 -999
2009-01-16 10:23 51°15.495 2°45.168 -999 -999 -999 -999 -999
2009-01-16 10:24 51°15.492 2°45.164 -999 -999 -999 -999 -999
2009-01-16 10:25 51°15.492 2°45.151 -999 -999 -999 -999 -999
2009-01-16 10:26 51°15.491 2°45.144 -999 -999 -999 -999 -999
2009-01-16 10:27 51°15.433 2°45.183 -999 -999 -999 -999 -999
2009-01-16 10:28 51°15.304 2°45.31 -999 -999 -999 -999 -999
2009-01-16 10:29 51°15.166 2°45.455 -999 -999 -999 -999 -999
2009-01-16 10:30 51°15.028 2°45.603 -999 -999 -999 -999 -999
2009-01-16 10:31 51°14.891 2°45.75 -999 -999 -999 -999 -999
2009-01-16 10:32 51°14.754 2°45.894 -999 -999 -999 -999 -999
2009-01-16 10:33 51°14.618 2°46.032 -999 -999 -999 -999 -999
2009-01-16 10:34 51°14.475 2°46.172 -999 -999 -999 -999 -999
2009-01-16 10:35 51°14.332 2°46.313 -999 -999 -999 -999 -999
2009-01-16 10:36 51°14.19 2°46.455 -999 -999 -999 -999 -999
2009-01-16 10:37 51°14.071 2°46.584 -999 -999 -999 -999 -999
2009-01-16 10:38 51°14.028 2°46.657 -999 -999 -999 -999 -999
2009-01-16 10:39 51°14.038 2°46.731 -999 -999 -999 -999 -999
2009-01-16 10:40 51°14.053 2°46.814 -999 -999 -999 -999 -999
2009-01-16 10:41 51°14.055 2°46.891 -999 -999 -999 -999 -999
2009-01-16 10:42 51°14.059 2°46.975 -999 -999 -999 -999 -999
2009-01-16 10:43 51°14.061 2°47.059 -999 -999 -999 -999 -999
2009-01-16 10:44 51°14.065 2°47.142 -999 -999 -999 -999 -999
2009-01-16 10:45 51°14.069 2°47.223 -999 -999 -999 -999 -999
2009-01-16 10:46 51°14.081 2°47.301 -999 -999 -999 -999 -999
2009-01-16 10:47 51°14.096 2°47.378 -999 -999 -999 -999 -999
2009-01-16 10:48 51°14.108 2°47.456 -999 -999 -999 -999 -999
2009-01-16 10:49 51°14.116 2°47.534 -999 -999 -999 -999 -999
2009-01-16 10:50 51°14.123 2°47.615 -999 -999 -999 -999 -999
2009-01-16 10:51 51°14.131 2°47.697 -999 -999 -999 -999 -999
2009-01-16 10:52 51°14.146 2°47.778 -999 -999 -999 -999 -999
2009-01-16 10:53 51°14.172 2°47.851 -999 -999 -999 -999 -999
2009-01-16 10:54 51°14.197 2°47.925 -999 -999 -999 -999 -999
2009-01-16 10:55 51°14.222 2°47.999 -999 -999 -999 -999 -999
2009-01-16 10:56 51°14.246 2°48.074 -999 -999 -999 -999 -999
2009-01-16 10:57 51°14.267 2°48.151 -999 -999 -999 -999 -999
2009-01-16 10:58 51°14.283 2°48.228 -999 -999 -999 -999 -999
2009-01-16 10:59 51°14.306 2°48.305 -999 -999 -999 -999 -999
2009-01-16 11:00 51°14.329 2°48.381 -999 -999 -999 -999 -999
2009-01-16 11:01 51°14.36 2°48.451 -999 -999 -999 -999 -999
2009-01-16 11:02 51°14.393 2°48.519 -999 -999 -999 -999 -999
2009-01-16 11:03 51°14.429 2°48.586 -999 -999 -999 -999 -999
2009-01-16 11:04 51°14.46 2°48.655 -999 -999 -999 -999 -999
2009-01-16 11:05 51°14.483 2°48.73 -999 -999 -999 -999 -999
2009-01-16 11:06 51°14.511 2°48.802 -999 -999 -999 -999 -999
2009-01-16 11:07 51°14.544 2°48.87 -999 -999 -999 -999 -999
2009-01-16 11:08 51°14.573 2°48.941 -999 -999 -999 -999 -999
2009-01-16 11:09 51°14.594 2°49.015 -999 -999 -999 -999 -999
2009-01-16 11:10 51°14.615 2°49.092 -999 -999 -999 -999 -999
2009-01-16 11:11 51°14.638 2°49.164 -999 -999 -999 -999 -999
2009-01-16 11:12 51°14.665 2°49.236 -999 -999 -999 -999 -999
2009-01-16 11:13 51°14.696 2°49.305 -999 -999 -999 -999 -999
2009-01-16 11:14 51°14.729 2°49.372 -999 -999 -999 -999 -999
2009-01-16 11:15 51°14.755 2°49.446 -999 -999 -999 -999 -999
2009-01-16 11:16 51°14.76 2°49.528 -999 -999 -999 -999 -999
2009-01-16 11:17 51°14.758 2°49.612 -999 -999 -999 -999 -999
2009-01-16 11:18 51°14.749 2°49.691 -999 -999 -999 -999 -999
2009-01-16 11:19 51°14.721 2°49.752 -999 -999 -999 -999 -999
2009-01-16 11:20 51°14.687 2°49.789 -999 -999 -999 -999 -999
2009-01-16 11:21 51°14.668 2°49.801 -999 -999 -999 -999 -999
2009-01-16 11:22 51°14.657 2°49.799 -999 -999 -999 -999 -999
2009-01-16 11:23 51°14.644 2°49.8 -999 -999 -999 -999 -999
2009-01-16 11:24 51°14.579 2°49.79 -999 -999 -999 -999 -999
2009-01-16 11:25 51°14.52 2°49.726 -999 -999 -999 -999 -999
2009-01-16 11:26 51°14.486 2°49.64 -999 -999 -999 -999 -999
2009-01-16 11:27 51°14.462 2°49.56 -999 -999 -999 -999 -999
2009-01-16 11:28 51°14.444 2°49.487 -999 -999 -999 -999 -999
2009-01-16 11:29 51°14.424 2°49.412 -999 -999 -999 -999 -999
2009-01-16 11:30 51°14.401 2°49.33 -999 -999 -999 -999 -999
2009-01-16 11:31 51°14.379 2°49.251 -999 -999 -999 -999 -999
2009-01-16 11:32 51°14.359 2°49.173 -999 -999 -999 -999 -999
2009-01-16 11:33 51°14.339 2°49.096 -999 -999 -999 -999 -999
2009-01-16 11:34 51°14.317 2°49.021 -999 -999 -999 -999 -999
2009-01-16 11:35 51°14.294 2°48.943 -999 -999 -999 -999 -999
2009-01-16 11:36 51°14.274 2°48.867 -999 -999 -999 -999 -999
2009-01-16 11:37 51°14.256 2°48.788 -999 -999 -999 -999 -999
2009-01-16 11:38 51°14.237 2°48.71 -999 -999 -999 -999 -999
2009-01-16 11:39 51°14.218 2°48.631 -999 -999 -999 -999 -999
2009-01-16 11:40 51°14.198 2°48.552 -999 -999 -999 -999 -999
2009-01-16 11:41 51°14.178 2°48.474 -999 -999 -999 -999 -999
2009-01-16 11:42 51°14.158 2°48.395 -999 -999 -999 -999 -999
2009-01-16 11:43 51°14.14 2°48.314 -999 -999 -999 -999 -999
2009-01-16 11:44 51°14.122 2°48.233 -999 -999 -999 -999 -999
2009-01-16 11:45 51°14.105 2°48.149 -999 -999 -999 -999 -999
2009-01-16 11:46 51°14.095 2°48.064 -999 -999 -999 -999 -999
2009-01-16 11:47 51°14.09 2°47.978 -999 -999 -999 -999 -999
2009-01-16 11:48 51°14.086 2°47.893 -999 -999 -999 -999 -999
2009-01-16 11:49 51°14.083 2°47.807 -999 -999 -999 -999 -999
2009-01-16 11:50 51°14.08 2°47.724 -999 -999 -999 -999 -999
2009-01-16 11:51 51°14.076 2°47.639 -999 -999 -999 -999 -999
2009-01-16 11:52 51°14.072 2°47.556 -999 -999 -999 -999 -999
2009-01-16 11:53 51°14.07 2°47.475 -999 -999 -999 -999 -999
2009-01-16 11:54 51°14.068 2°47.394 -999 -999 -999 -999 -999
2009-01-16 11:55 51°14.067 2°47.311 -999 -999 -999 -999 -999
2009-01-16 11:56 51°14.068 2°47.23 -999 -999 -999 -999 -999
2009-01-16 11:57 51°14.07 2°47.147 -999 -999 -999 -999 -999
2009-01-16 11:58 51°14.072 2°47.064 -999 -999 -999 -999 -999
2009-01-16 11:59 51°14.073 2°46.984 -999 -999 -999 -999 -999
2009-01-16 12:00 51°14.074 2°46.901 -999 -999 -999 -999 -999
2009-01-16 12:01 51°14.075 2°46.818 -999 -999 -999 -999 -999
2009-01-16 12:02 51°14.077 2°46.733 -999 -999 -999 -999 -999
2009-01-16 12:03 51°14.08 2°46.652 -999 -999 -999 -999 -999
2009-01-16 12:04 51°14.083 2°46.571 -999 -999 -999 -999 -999
2009-01-16 12:05 51°14.085 2°46.491 -999 -999 -999 -999 -999
2009-01-16 12:06 51°14.088 2°46.409 -999 -999 -999 -999 -999
2009-01-16 12:07 51°14.093 2°46.326 -999 -999 -999 -999 -999
2009-01-16 12:08 51°14.103 2°46.247 -999 -999 -999 -999 -999
2009-01-16 12:09 51°14.118 2°46.168 -999 -999 -999 -999 -999
2009-01-16 12:10 51°14.134 2°46.094 -999 -999 -999 -999 -999
2009-01-16 12:11 51°14.157 2°46.017 -999 -999 -999 -999 -999
2009-01-16 12:12 51°14.193 2°45.986 -999 -999 -999 -999 -999
2009-01-16 12:13 51°14.216 2°45.984 -999 -999 -999 -999 -999
2009-01-16 12:14 51°14.23 2°45.983 -999 -999 -999 -999 -999
2009-01-16 12:15 51°14.237 2°45.979 -999 -999 -999 -999 -999
2009-01-16 12:16 51°14.24 2°45.985 -999 -999 -999 -999 -999
2009-01-16 12:17 51°14.229 2°46.086 -999 -999 -999 -999 -999
2009-01-16 12:18 51°14.247 2°46.334 -999 -999 -999 -999 -999
2009-01-16 12:19 51°14.27 2°46.631 -999 -999 -999 -999 -999
2009-01-16 12:20 51°14.29 2°46.929 -999 -999 -999 -999 -999
2009-01-16 12:21 51°14.306 2°47.227 -999 -999 -999 -999 -999
2009-01-16 12:22 51°14.319 2°47.529 -999 -999 -999 -999 -999
2009-01-16 12:23 51°14.331 2°47.831 -999 -999 -999 -999 -999
2009-01-16 12:24 51°14.342 2°48.132 -999 -999 -999 -999 -999
2009-01-16 12:25 51°14.348 2°48.433 -999 -999 -999 -999 -999
2009-01-16 12:26 51°14.358 2°48.732 -999 -999 -999 -999 -999
2009-01-16 12:27 51°14.366 2°49.034 -999 -999 -999 -999 -999
2009-01-16 12:28 51°14.372 2°49.338 -999 -999 -999 -999 -999
2009-01-16 12:29 51°14.38 2°49.641 -999 -999 -999 -999 -999
2009-01-16 12:30 51°14.391 2°49.943 -999 -999 -999 -999 -999
2009-01-16 12:31 51°14.414 2°50.243 -999 -999 -999 -999 -999
2009-01-16 12:32 51°14.44 2°50.542 -999 -999 -999 -999 -999
2009-01-16 12:33 51°14.468 2°50.84 -999 -999 -999 -999 -999
2009-01-16 12:34 51°14.5 2°51.138 -999 -999 -999 -999 -999
2009-01-16 12:35 51°14.537 2°51.433 -999 -999 -999 -999 -999
2009-01-16 12:36 51°14.569 2°51.731 -999 -999 -999 -999 -999
2009-01-16 12:37 51°14.602 2°52.029 -999 -999 -999 -999 -999
2009-01-16 12:38 51°14.627 2°52.332 -999 -999 -999 -999 -999
2009-01-16 12:39 51°14.649 2°52.606 -999 -999 -999 -999 -999
2009-01-16 12:40 51°14.668 2°52.79 -999 -999 -999 -999 -999
2009-01-16 12:41 51°14.678 2°52.937 -999 -999 -999 -999 -999
2009-01-16 12:42 51°14.685 2°53.062 -999 -999 -999 -999 -999
2009-01-16 12:43 51°14.694 2°53.179 -999 -999 -999 -999 -999
2009-01-16 12:44 51°14.698 2°53.279 -999 -999 -999 -999 -999
2009-01-16 12:45 51°14.701 2°53.373 -999 -999 -999 -999 -999
2009-01-16 12:46 51°14.707 2°53.472 -999 -999 -999 -999 -999
2009-01-16 12:47 51°14.725 2°53.591 -999 -999 -999 -999 -999
2009-01-16 12:48 51°14.696 2°53.766 -999 -999 -999 -999 -999
2009-01-16 12:49 51°14.613 2°54.034 -999 -999 -999 -999 -999
2009-01-16 12:50 51°14.548 2°54.326 -999 -999 -999 -999 -999
2009-01-16 12:51 51°14.499 2°54.623 -999 -999 -999 -999 -999
2009-01-16 12:52 51°14.423 2°54.903 -999 -999 -999 -999 -999
2009-01-16 12:53 51°14.315 2°55.153 -999 -999 -999 -999 -999
2009-01-16 12:54 51°14.213 2°55.327 -999 -999 -999 -999 -999
2009-01-16 12:56 51°14.138 2°55.401 -999 -999 -999 -999 -999
2009-01-16 12:57 51°13.899 2°55.578 -999 -999 -999 -999 -999
2009-01-16 12:58 51°13.814 2°55.642 -999 -999 -999 -999 -999
2009-01-16 12:59 51°13.742 2°55.732 -999 -999 -999 -999 -999
2009-01-16 13:00 51°13.693 2°55.837 -999 -999 -999 -999 -999
2009-01-16 13:01 51°13.674 2°55.918 -999 -999 -999 -999 -999